createdAt,value
2023-04-21T00:08:19.415Z,17.5048828125
2023-04-21T00:18:19.363Z,17.29736328125
2023-04-21T00:28:19.288Z,17.39501953125
2023-04-21T00:38:19.168Z,17.29736328125
2023-04-21T00:48:19.105Z,17.39501953125
2023-04-21T00:58:19.042Z,17.39501953125
2023-04-21T01:08:19.059Z,17.39501953125
2023-04-21T01:18:18.905Z,17.5048828125
2023-04-21T01:28:18.892Z,17.5048828125
2023-04-21T01:38:19.412Z,17.6025390625
2023-04-21T01:48:18.818Z,17.39501953125
2023-04-21T01:58:18.622Z,17.39501953125
2023-04-21T02:08:18.726Z,17.29736328125
2023-04-21T02:18:18.547Z,17.29736328125
2023-04-21T02:28:18.445Z,17.29736328125
2023-04-21T02:38:18.528Z,17.19970703125
2023-04-21T02:48:18.387Z,17.10205078125
2023-04-21T02:58:18.205Z,17.29736328125
2023-04-21T03:08:18.142Z,17.29736328125
2023-04-21T03:18:18.114Z,17.29736328125
2023-04-21T03:28:18.038Z,17.39501953125
2023-04-21T03:38:17.916Z,17.39501953125
2023-04-21T03:48:17.938Z,17.5048828125
2023-04-21T03:58:17.767Z,17.19970703125
2023-04-21T04:08:17.796Z,17.10205078125
2023-04-21T04:18:17.680Z,17.10205078125
2023-04-21T04:28:17.637Z,17.10205078125
2023-04-21T04:38:17.554Z,17.00439453125
2023-04-21T04:48:17.500Z,17.00439453125
2023-04-21T04:58:17.393Z,16.796875
2023-04-21T05:08:18.290Z,16.69921875
2023-04-21T05:18:17.245Z,16.6015625
2023-04-21T05:28:17.200Z,16.39404296875
2023-04-21T05:38:17.067Z,16.19873046875
2023-04-21T05:48:17.145Z,16.19873046875
2023-04-21T05:58:16.914Z,16.19873046875
2023-04-21T06:08:16.955Z,16.10107421875
2023-04-21T06:18:16.876Z,16.19873046875
2023-04-21T06:28:16.701Z,16.19873046875
2023-04-21T06:38:16.742Z,16.10107421875
2023-04-21T06:48:16.860Z,16.10107421875
2023-04-21T06:58:17.661Z,16.00341796875
2023-04-21T07:08:16.526Z,16.10107421875
2023-04-21T07:18:16.373Z,16.10107421875
2023-04-21T07:28:16.368Z,16.00341796875
2023-04-21T07:38:16.198Z,15.90576171875
2023-04-21T07:48:16.225Z,16.00341796875
2023-04-21T07:58:16.124Z,16.00341796875
2023-04-21T08:08:16.061Z,16.00341796875
2023-04-21T08:18:15.956Z,16.00341796875
2023-04-21T08:26:17.968Z,16.00341796875
2023-04-21T08:36:28.253Z,16.00341796875
2023-04-21T08:46:17.649Z,16.00341796875
2023-04-21T08:56:17.508Z,16.00341796875
2023-04-21T09:06:18.059Z,16.00341796875
2023-04-21T09:16:17.299Z,16.00341796875
2023-04-21T09:26:17.415Z,16.00341796875
2023-04-21T09:36:17.194Z,16.00341796875
2023-04-21T09:46:17.134Z,16.00341796875
2023-04-21T09:56:16.994Z,16.00341796875
2023-04-21T10:06:16.898Z,16.00341796875
2023-04-21T10:16:16.919Z,16.00341796875
2023-04-21T10:26:16.774Z,15.90576171875
2023-04-21T10:36:16.780Z,15.90576171875
2023-04-21T10:46:16.654Z,16.00341796875
2023-04-21T10:56:16.553Z,16.00341796875
2023-04-21T11:06:16.594Z,16.00341796875
2023-04-21T11:16:16.410Z,16.00341796875
2023-04-21T11:26:16.417Z,15.90576171875
2023-04-21T11:36:16.237Z,15.90576171875
2023-04-21T11:46:16.411Z,15.7958984375
2023-04-21T11:56:16.150Z,15.7958984375
2023-04-21T12:06:16.264Z,15.6982421875
2023-04-21T12:16:16.160Z,15.6982421875
2023-04-21T12:26:15.871Z,15.6982421875
2023-04-21T12:36:15.852Z,15.6982421875
2023-04-21T12:46:15.871Z,15.6005859375
2023-04-21T12:56:15.706Z,15.5029296875
2023-04-21T13:06:15.684Z,15.4052734375
2023-04-21T13:16:15.512Z,15.4052734375
2023-04-21T13:26:15.417Z,15.4052734375
2023-04-21T13:36:15.432Z,15.29541015625
2023-04-21T13:46:15.376Z,15.29541015625
2023-04-21T13:56:15.242Z,15.29541015625
2023-04-21T14:06:15.179Z,15.29541015625
2023-04-21T14:16:15.208Z,15.19775390625
2023-04-21T14:26:15.125Z,15.19775390625
2023-04-21T14:36:14.976Z,15.19775390625
2023-04-21T14:46:14.926Z,15.19775390625
2023-04-21T14:56:14.770Z,15.19775390625
2023-04-21T15:06:14.737Z,15.19775390625
2023-04-21T15:16:14.645Z,15.19775390625
2023-04-21T15:26:14.558Z,15.19775390625
2023-04-21T15:36:14.484Z,15.19775390625
2023-04-21T15:46:14.543Z,15.19775390625
2023-04-21T15:56:14.322Z,15.19775390625
2023-04-21T16:06:14.435Z,15.19775390625
2023-04-21T16:16:14.540Z,15.19775390625
2023-04-21T16:26:14.164Z,15.19775390625
2023-04-21T16:36:14.071Z,15.19775390625
2023-04-21T16:46:14.036Z,15.19775390625
2023-04-21T16:56:13.942Z,15.19775390625
2023-04-21T17:06:13.973Z,15.19775390625
2023-04-21T17:16:13.784Z,15.10009765625
2023-04-21T17:26:13.825Z,15.10009765625
2023-04-21T17:36:13.594Z,15.19775390625
2023-04-21T17:46:13.972Z,15.19775390625
2023-04-21T17:56:13.467Z,15.10009765625
2023-04-21T18:06:13.652Z,15.10009765625
2023-04-21T18:16:13.507Z,15.10009765625
2023-04-21T18:26:13.264Z,15.19775390625
2023-04-21T18:36:13.240Z,15.19775390625
2023-04-21T18:46:13.353Z,15.19775390625
2023-04-21T18:56:13.085Z,15.19775390625
2023-04-21T19:06:13.014Z,15.19775390625
2023-04-21T19:16:12.960Z,15.19775390625
2023-04-21T19:26:12.866Z,15.29541015625
2023-04-21T19:36:12.762Z,15.29541015625
2023-04-21T19:56:12.649Z,15.29541015625
2023-04-21T20:06:12.536Z,15.29541015625
2023-04-21T20:16:12.587Z,15.29541015625
2023-04-21T20:26:12.371Z,15.29541015625
2023-04-21T20:28:15.640Z,15.4052734375
2023-04-21T20:38:15.218Z,15.4052734375
2023-04-21T20:48:15.157Z,15.5029296875
2023-04-21T20:58:15.110Z,15.5029296875
2023-04-21T21:08:15.163Z,15.6005859375
2023-04-21T21:08:51.149Z,15.6005859375
2023-04-21T21:18:50.682Z,15.6005859375
2023-04-21T21:28:50.750Z,15.6982421875
2023-04-21T21:38:50.745Z,15.7958984375
2023-04-21T21:48:50.558Z,16.00341796875
2023-04-21T21:58:50.456Z,16.19873046875
2023-04-21T22:08:50.486Z,16.19873046875
2023-04-21T22:18:50.324Z,16.19873046875
2023-04-21T22:28:50.277Z,16.29638671875
2023-04-21T22:38:50.106Z,16.29638671875
2023-04-21T22:48:50.082Z,16.6015625
2023-04-21T22:58:49.964Z,17.29736328125
2023-04-21T23:08:50.109Z,17.39501953125
2023-04-21T23:18:49.942Z,17.6025390625
2023-04-21T23:28:50.095Z,17.8955078125
2023-04-21T23:38:49.673Z,17.29736328125
2023-04-21T23:48:49.683Z,17.29736328125
2023-04-21T23:58:49.658Z,17.10205078125
